sensor_id;sensor_type;location;lat;lon;timestamp;P1;durP1;ratioP1;P2;durP2;ratioP2
50649;SDS011;36621;60.058;30.346;2023-05-20T00:07:14;7.63;;;3.40;;
50649;SDS011;36621;60.058;30.346;2023-05-20T00:14:46;7.15;;;4.68;;
50649;SDS011;36621;60.058;30.346;2023-05-20T00:22:18;23.25;;;18.92;;
50649;SDS011;36621;60.058;30.346;2023-05-20T00:29:52;36.47;;;32.58;;
50649;SDS011;36621;60.058;30.346;2023-05-20T00:37:24;27.05;;;22.63;;
50649;SDS011;36621;60.058;30.346;2023-05-20T00:44:57;24.08;;;18.88;;
50649;SDS011;36621;60.058;30.346;2023-05-20T00:52:30;22.52;;;18.77;;
50649;SDS011;36621;60.058;30.346;2023-05-20T01:00:03;23.05;;;15.85;;
50649;SDS011;36621;60.058;30.346;2023-05-20T01:07:38;18.25;;;11.60;;
50649;SDS011;36621;60.058;30.346;2023-05-20T01:15:11;15.88;;;8.63;;
50649;SDS011;36621;60.058;30.346;2023-05-20T01:22:48;16.20;;;7.35;;
50649;SDS011;36621;60.058;30.346;2023-05-20T01:30:24;14.63;;;8.02;;
50649;SDS011;36621;60.058;30.346;2023-05-20T01:38:00;11.90;;;6.68;;
50649;SDS011;36621;60.058;30.346;2023-05-20T01:45:35;13.90;;;6.40;;
50649;SDS011;36621;60.058;30.346;2023-05-20T01:53:09;12.52;;;5.93;;
50649;SDS011;36621;60.058;30.346;2023-05-20T02:00:41;9.38;;;5.53;;
50649;SDS011;36621;60.058;30.346;2023-05-20T02:08:14;11.18;;;5.07;;
50649;SDS011;36621;60.058;30.346;2023-05-20T02:15:46;10.27;;;5.40;;
50649;SDS011;36621;60.058;30.346;2023-05-20T02:23:20;14.68;;;5.13;;
50649;SDS011;36621;60.058;30.346;2023-05-20T02:30:53;10.10;;;5.30;;
50649;SDS011;36621;60.058;30.346;2023-05-20T02:38:30;15.68;;;5.07;;
50649;SDS011;36621;60.058;30.346;2023-05-20T02:46:10;10.27;;;3.88;;
50649;SDS011;36621;60.058;30.346;2023-05-20T02:53:44;6.57;;;3.10;;
50649;SDS011;36621;60.058;30.346;2023-05-20T03:01:17;15.95;;;4.25;;
50649;SDS011;36621;60.058;30.346;2023-05-20T03:08:50;11.77;;;3.40;;
50649;SDS011;36621;60.058;30.346;2023-05-20T03:16:22;7.70;;;3.75;;
50649;SDS011;36621;60.058;30.346;2023-05-20T03:23:56;5.90;;;3.03;;
50649;SDS011;36621;60.058;30.346;2023-05-20T03:31:28;8.02;;;3.40;;
50649;SDS011;36621;60.058;30.346;2023-05-20T03:39:01;4.57;;;3.10;;
50649;SDS011;36621;60.058;30.346;2023-05-20T03:46:36;10.10;;;3.00;;
50649;SDS011;36621;60.058;30.346;2023-05-20T03:54:09;6.35;;;3.15;;
50649;SDS011;36621;60.058;30.346;2023-05-20T04:01:42;5.82;;;3.20;;
50649;SDS011;36621;60.058;30.346;2023-05-20T04:09:16;4.80;;;3.10;;
50649;SDS011;36621;60.058;30.346;2023-05-20T04:16:48;6.20;;;3.13;;
50649;SDS011;36621;60.058;30.346;2023-05-20T04:24:22;5.50;;;3.03;;
50649;SDS011;36621;60.058;30.346;2023-05-20T04:31:55;6.78;;;3.60;;
50649;SDS011;36621;60.058;30.346;2023-05-20T04:39:29;8.65;;;4.05;;
50649;SDS011;36621;60.058;30.346;2023-05-20T04:47:01;9.20;;;4.03;;
50649;SDS011;36621;60.058;30.346;2023-05-20T04:54:35;6.25;;;3.85;;
50649;SDS011;36621;60.058;30.346;2023-05-20T05:02:08;4.45;;;2.80;;
50649;SDS011;36621;60.058;30.346;2023-05-20T05:09:41;8.88;;;3.35;;
50649;SDS011;36621;60.058;30.346;2023-05-20T05:17:13;9.88;;;3.00;;
50649;SDS011;36621;60.058;30.346;2023-05-20T05:24:46;6.60;;;2.50;;
50649;SDS011;36621;60.058;30.346;2023-05-20T05:32:19;7.93;;;3.15;;
50649;SDS011;36621;60.058;30.346;2023-05-20T05:39:52;9.15;;;3.05;;
50649;SDS011;36621;60.058;30.346;2023-05-20T05:47:25;11.07;;;2.95;;
50649;SDS011;36621;60.058;30.346;2023-05-20T05:55:04;9.13;;;2.60;;
50649;SDS011;36621;60.058;30.346;2023-05-20T06:02:37;13.40;;;7.20;;
50649;SDS011;36621;60.058;30.346;2023-05-20T06:10:10;13.35;;;4.00;;
50649;SDS011;36621;60.058;30.346;2023-05-20T06:17:42;7.85;;;3.58;;
50649;SDS011;36621;60.058;30.346;2023-05-20T06:25:15;9.20;;;3.83;;
50649;SDS011;36621;60.058;30.346;2023-05-20T06:32:48;12.82;;;3.67;;
50649;SDS011;36621;60.058;30.346;2023-05-20T06:40:22;10.65;;;3.25;;
50649;SDS011;36621;60.058;30.346;2023-05-20T06:47:56;8.30;;;3.25;;
50649;SDS011;36621;60.058;30.346;2023-05-20T06:55:30;9.57;;;3.40;;
50649;SDS011;36621;60.058;30.346;2023-05-20T07:03:03;10.57;;;2.70;;
50649;SDS011;36621;60.058;30.346;2023-05-20T07:10:36;8.10;;;2.30;;
50649;SDS011;36621;60.058;30.346;2023-05-20T07:18:08;9.18;;;2.30;;
50649;SDS011;36621;60.058;30.346;2023-05-20T07:25:42;5.53;;;2.42;;
50649;SDS011;36621;60.058;30.346;2023-05-20T07:33:15;6.65;;;2.65;;
50649;SDS011;36621;60.058;30.346;2023-05-20T07:40:49;9.30;;;2.40;;
50649;SDS011;36621;60.058;30.346;2023-05-20T07:48:21;4.60;;;1.80;;
50649;SDS011;36621;60.058;30.346;2023-05-20T07:55:54;8.18;;;2.00;;
50649;SDS011;36621;60.058;30.346;2023-05-20T08:03:27;4.80;;;1.50;;
50649;SDS011;36621;60.058;30.346;2023-05-20T08:11:15;6.97;;;2.53;;
50649;SDS011;36621;60.058;30.346;2023-05-20T08:18:47;6.65;;;1.73;;
50649;SDS011;36621;60.058;30.346;2023-05-20T08:26:19;7.20;;;1.90;;
50649;SDS011;36621;60.058;30.346;2023-05-20T08:33:54;5.97;;;1.88;;
50649;SDS011;36621;60.058;30.346;2023-05-20T08:41:27;5.82;;;2.10;;
50649;SDS011;36621;60.058;30.346;2023-05-20T08:49:00;3.38;;;1.80;;
50649;SDS011;36621;60.058;30.346;2023-05-20T08:56:33;3.35;;;1.88;;
50649;SDS011;36621;60.058;30.346;2023-05-20T09:04:06;6.20;;;2.60;;
50649;SDS011;36621;60.058;30.346;2023-05-20T09:11:40;5.45;;;1.75;;
50649;SDS011;36621;60.058;30.346;2023-05-20T09:19:13;9.75;;;2.30;;
50649;SDS011;36621;60.058;30.346;2023-05-20T09:26:45;3.70;;;1.70;;
50649;SDS011;36621;60.058;30.346;2023-05-20T09:34:18;5.97;;;1.88;;
50649;SDS011;36621;60.058;30.346;2023-05-20T09:41:53;6.00;;;1.92;;
50649;SDS011;36621;60.058;30.346;2023-05-20T09:49:28;3.73;;;1.40;;
50649;SDS011;36621;60.058;30.346;2023-05-20T09:57:02;6.85;;;2.22;;
50649;SDS011;36621;60.058;30.346;2023-05-20T10:04:39;11.18;;;2.55;;
50649;SDS011;36621;60.058;30.346;2023-05-20T10:12:19;9.18;;;1.90;;
50649;SDS011;36621;60.058;30.346;2023-05-20T10:20:00;9.15;;;1.67;;
50649;SDS011;36621;60.058;30.346;2023-05-20T10:27:41;11.05;;;2.53;;
50649;SDS011;36621;60.058;30.346;2023-05-20T10:35:19;11.45;;;1.98;;
50649;SDS011;36621;60.058;30.346;2023-05-20T10:50:25;5.68;;;2.17;;
50649;SDS011;36621;60.058;30.346;2023-05-20T10:57:59;5.30;;;1.70;;
50649;SDS011;36621;60.058;30.346;2023-05-20T11:05:31;12.65;;;2.22;;
50649;SDS011;36621;60.058;30.346;2023-05-20T11:13:04;7.35;;;2.00;;
50649;SDS011;36621;60.058;30.346;2023-05-20T11:20:36;7.35;;;2.00;;
50649;SDS011;36621;60.058;30.346;2023-05-20T11:28:11;4.47;;;2.40;;
50649;SDS011;36621;60.058;30.346;2023-05-20T11:35:43;5.90;;;1.70;;
50649;SDS011;36621;60.058;30.346;2023-05-20T11:43:17;11.27;;;1.85;;
50649;SDS011;36621;60.058;30.346;2023-05-20T11:50:51;7.28;;;1.95;;
50649;SDS011;36621;60.058;30.346;2023-05-20T11:58:26;11.45;;;2.25;;
50649;SDS011;36621;60.058;30.346;2023-05-20T12:05:59;3.67;;;1.58;;
50649;SDS011;36621;60.058;30.346;2023-05-20T12:13:32;6.18;;;1.38;;
50649;SDS011;36621;60.058;30.346;2023-05-20T12:21:04;8.70;;;1.92;;
50649;SDS011;36621;60.058;30.346;2023-05-20T12:28:37;13.95;;;2.13;;
50649;SDS011;36621;60.058;30.346;2023-05-20T12:36:10;9.23;;;1.98;;
50649;SDS011;36621;60.058;30.346;2023-05-20T12:43:43;18.60;;;7.63;;
50649;SDS011;36621;60.058;30.346;2023-05-20T12:51:15;7.70;;;1.80;;
50649;SDS011;36621;60.058;30.346;2023-05-20T12:58:49;10.30;;;1.90;;
50649;SDS011;36621;60.058;30.346;2023-05-20T13:06:21;8.20;;;1.80;;
50649;SDS011;36621;60.058;30.346;2023-05-20T13:13:54;8.93;;;1.80;;
50649;SDS011;36621;60.058;30.346;2023-05-20T13:21:27;8.30;;;2.83;;
50649;SDS011;36621;60.058;30.346;2023-05-20T13:29:00;6.35;;;2.63;;
50649;SDS011;36621;60.058;30.346;2023-05-20T13:36:32;6.72;;;2.05;;
50649;SDS011;36621;60.058;30.346;2023-05-20T13:44:05;5.63;;;2.00;;
50649;SDS011;36621;60.058;30.346;2023-05-20T13:51:37;6.03;;;1.65;;
50649;SDS011;36621;60.058;30.346;2023-05-20T13:59:10;3.22;;;2.10;;
50649;SDS011;36621;60.058;30.346;2023-05-20T14:06:42;10.90;;;2.60;;
50649;SDS011;36621;60.058;30.346;2023-05-20T14:14:14;11.57;;;2.38;;
50649;SDS011;36621;60.058;30.346;2023-05-20T14:21:46;9.73;;;2.08;;
50649;SDS011;36621;60.058;30.346;2023-05-20T14:29:19;7.43;;;2.10;;
50649;SDS011;36621;60.058;30.346;2023-05-20T14:36:51;5.60;;;1.63;;
50649;SDS011;36621;60.058;30.346;2023-05-20T14:44:24;11.35;;;3.40;;
50649;SDS011;36621;60.058;30.346;2023-05-20T14:51:56;6.47;;;2.22;;
50649;SDS011;36621;60.058;30.346;2023-05-20T14:59:28;5.95;;;2.08;;
50649;SDS011;36621;60.058;30.346;2023-05-20T15:07:00;10.02;;;2.40;;
50649;SDS011;36621;60.058;30.346;2023-05-20T15:14:33;10.00;;;2.53;;
50649;SDS011;36621;60.058;30.346;2023-05-20T15:22:05;11.07;;;2.38;;
50649;SDS011;36621;60.058;30.346;2023-05-20T15:29:38;6.22;;;1.88;;
50649;SDS011;36621;60.058;30.346;2023-05-20T15:37:10;9.13;;;2.28;;
50649;SDS011;36621;60.058;30.346;2023-05-20T15:44:42;12.48;;;2.30;;
50649;SDS011;36621;60.058;30.346;2023-05-20T15:52:14;10.48;;;2.30;;
50649;SDS011;36621;60.058;30.346;2023-05-20T15:59:47;12.82;;;2.80;;
50649;SDS011;36621;60.058;30.346;2023-05-20T16:07:20;9.73;;;2.58;;
50649;SDS011;36621;60.058;30.346;2023-05-20T16:14:52;16.40;;;2.85;;
50649;SDS011;36621;60.058;30.346;2023-05-20T16:22:24;10.38;;;2.60;;
50649;SDS011;36621;60.058;30.346;2023-05-20T16:29:57;8.88;;;2.38;;
50649;SDS011;36621;60.058;30.346;2023-05-20T16:37:29;6.35;;;1.70;;
50649;SDS011;36621;60.058;30.346;2023-05-20T16:45:03;9.38;;;2.40;;
50649;SDS011;36621;60.058;30.346;2023-05-20T16:52:36;8.80;;;2.00;;
50649;SDS011;36621;60.058;30.346;2023-05-20T17:00:09;7.35;;;2.30;;
50649;SDS011;36621;60.058;30.346;2023-05-20T17:07:42;4.57;;;2.00;;
50649;SDS011;36621;60.058;30.346;2023-05-20T17:15:15;6.90;;;3.05;;
50649;SDS011;36621;60.058;30.346;2023-05-20T17:22:47;8.88;;;2.63;;
50649;SDS011;36621;60.058;30.346;2023-05-20T17:30:19;12.48;;;3.05;;
50649;SDS011;36621;60.058;30.346;2023-05-20T17:37:51;10.85;;;3.25;;
50649;SDS011;36621;60.058;30.346;2023-05-20T17:45:25;9.30;;;2.70;;
50649;SDS011;36621;60.058;30.346;2023-05-20T17:52:57;8.95;;;2.50;;
50649;SDS011;36621;60.058;30.346;2023-05-20T18:00:32;9.40;;;3.25;;
50649;SDS011;36621;60.058;30.346;2023-05-20T18:08:11;8.70;;;2.85;;
50649;SDS011;36621;60.058;30.346;2023-05-20T18:15:44;31.90;;;17.58;;
50649;SDS011;36621;60.058;30.346;2023-05-20T18:23:16;13.20;;;4.28;;
50649;SDS011;36621;60.058;30.346;2023-05-20T18:30:49;10.60;;;4.65;;
50649;SDS011;36621;60.058;30.346;2023-05-20T18:38:21;11.27;;;4.00;;
50649;SDS011;36621;60.058;30.346;2023-05-20T18:45:54;12.20;;;4.00;;
50649;SDS011;36621;60.058;30.346;2023-05-20T18:53:26;14.75;;;3.58;;
50649;SDS011;36621;60.058;30.346;2023-05-20T19:00:59;8.18;;;3.38;;
50649;SDS011;36621;60.058;30.346;2023-05-20T19:08:31;9.65;;;3.80;;
50649;SDS011;36621;60.058;30.346;2023-05-20T19:16:04;12.65;;;4.10;;
50649;SDS011;36621;60.058;30.346;2023-05-20T19:23:37;11.02;;;5.32;;
50649;SDS011;36621;60.058;30.346;2023-05-20T19:31:09;13.57;;;4.47;;
50649;SDS011;36621;60.058;30.346;2023-05-20T19:38:41;13.95;;;4.35;;
50649;SDS011;36621;60.058;30.346;2023-05-20T19:46:15;16.23;;;5.25;;
50649;SDS011;36621;60.058;30.346;2023-05-20T19:54:54;14.23;;;5.28;;
50649;SDS011;36621;60.058;30.346;2023-05-20T20:02:27;23.60;;;6.82;;
50649;SDS011;36621;60.058;30.346;2023-05-20T20:09:59;25.38;;;8.63;;
50649;SDS011;36621;60.058;30.346;2023-05-20T20:17:32;33.65;;;9.35;;
50649;SDS011;36621;60.058;30.346;2023-05-20T20:25:05;26.40;;;9.20;;
50649;SDS011;36621;60.058;30.346;2023-05-20T20:32:38;27.08;;;9.90;;
50649;SDS011;36621;60.058;30.346;2023-05-20T20:40:10;39.67;;;9.80;;
50649;SDS011;36621;60.058;30.346;2023-05-20T20:47:44;32.10;;;12.25;;
50649;SDS011;36621;60.058;30.346;2023-05-20T20:55:16;46.92;;;11.55;;
50649;SDS011;36621;60.058;30.346;2023-05-20T21:02:48;21.50;;;8.32;;
50649;SDS011;36621;60.058;30.346;2023-05-20T21:10:21;24.15;;;7.63;;
50649;SDS011;36621;60.058;30.346;2023-05-20T21:17:54;36.00;;;8.48;;
50649;SDS011;36621;60.058;30.346;2023-05-20T21:25:26;29.95;;;8.32;;
50649;SDS011;36621;60.058;30.346;2023-05-20T21:32:58;22.73;;;7.90;;
50649;SDS011;36621;60.058;30.346;2023-05-20T21:40:31;32.17;;;7.65;;
50649;SDS011;36621;60.058;30.346;2023-05-20T21:48:04;25.02;;;6.88;;
50649;SDS011;36621;60.058;30.346;2023-05-20T21:55:37;26.60;;;8.48;;
50649;SDS011;36621;60.058;30.346;2023-05-20T22:03:09;25.45;;;10.05;;
50649;SDS011;36621;60.058;30.346;2023-05-20T22:10:42;27.77;;;11.05;;
50649;SDS011;36621;60.058;30.346;2023-05-20T22:18:15;32.40;;;11.07;;
50649;SDS011;36621;60.058;30.346;2023-05-20T22:25:47;39.08;;;13.98;;
50649;SDS011;36621;60.058;30.346;2023-05-20T22:33:20;28.40;;;13.55;;
50649;SDS011;36621;60.058;30.346;2023-05-20T22:40:54;30.52;;;11.95;;
50649;SDS011;36621;60.058;30.346;2023-05-20T22:48:26;39.20;;;12.05;;
50649;SDS011;36621;60.058;30.346;2023-05-20T22:55:58;37.30;;;13.43;;
50649;SDS011;36621;60.058;30.346;2023-05-20T23:03:31;36.22;;;15.15;;
50649;SDS011;36621;60.058;30.346;2023-05-20T23:11:03;55.17;;;15.75;;
50649;SDS011;36621;60.058;30.346;2023-05-20T23:18:36;46.40;;;14.60;;
50649;SDS011;36621;60.058;30.346;2023-05-20T23:26:08;49.30;;;14.68;;
50649;SDS011;36621;60.058;30.346;2023-05-20T23:33:41;32.30;;;12.90;;
50649;SDS011;36621;60.058;30.346;2023-05-20T23:41:13;27.27;;;11.40;;
50649;SDS011;36621;60.058;30.346;2023-05-20T23:48:46;29.08;;;11.73;;
50649;SDS011;36621;60.058;30.346;2023-05-20T23:56:19;21.65;;;11.32;;
